Time;durP1;ratioP1;P1;durP2;ratioP2;P2;SDS_P1;SDS_P2;PMS_P1;PMS_P2;Temp;Humidity;BMP_temperature;BMP_pressure;BME280_temperature;BME280_humidity;BME280_pressure;Samples;Min_cycle;Max_cycle;Signal;HPM_P1;HPM_P2
2021/08/15 00:03:49;;;;;;;;;;;23.30;99.90;;;22.23;85.31;95820.84;10488206;28;2313;-79
2021/08/15 00:08:52;;;;;;;;;;;23.10;99.90;;;22.11;85.31;95806.03;10491402;28;2338;-78
2021/08/15 00:13:54;;;;;;;;;;;23.10;99.90;;;22.06;84.90;95808.19;10494241;28;2329;-78
2021/08/15 00:19:00;;;;;;;;;;;23.00;99.90;;;21.98;86.42;95788.00;10498338;28;2309;-80
2021/08/15 00:24:02;;;;;;;;;;;23.00;99.90;;;21.97;86.27;95797.38;10497667;28;2280;-78
2021/08/15 00:29:05;;;;;;;;;;;22.90;99.90;;;21.89;86.58;95798.31;10500170;28;2405;-78
2021/08/15 00:34:08;;;;;;;;;;;22.90;99.90;;;21.83;86.42;95796.94;10500172;28;2390;-78
2021/08/15 00:39:10;;;;;;;;;;;22.80;99.90;;;21.93;86.63;95799.19;10498803;28;2352;-77
2021/08/15 00:44:13;;;;;;;;;;;22.80;99.90;;;21.81;87.00;95791.00;10492804;28;2396;-78
2021/08/15 00:49:15;;;;;;;;;;;22.80;99.90;;;21.85;86.72;95792.72;10478714;28;2303;-78
2021/08/15 00:54:18;;;;;;;;;;;22.70;99.90;;;21.79;87.38;95791.38;10494138;28;2386;-79
2021/08/15 00:59:21;;;;;;;;;;;22.70;99.90;;;21.70;88.07;95778.97;10494884;28;2332;-78
2021/08/15 01:04:23;;;;;;;;;;;22.70;99.90;;;21.70;87.91;95782.50;10498113;28;2360;-79
2021/08/15 01:09:26;;;;;;;;;;;22.70;99.90;;;21.65;88.24;95781.94;10496498;28;2272;-78
2021/08/15 01:14:29;;;;;;;;;;;22.60;99.90;;;21.52;89.69;95773.75;10498037;28;2253;-79
2021/08/15 01:19:32;;;;;;;;;;;22.50;99.90;;;21.48;90.25;95778.28;10496533;28;2272;-78
2021/08/15 01:24:36;;;;;;;;;;;22.40;99.90;;;21.39;91.00;95774.09;10492524;28;2324;-78
2021/08/15 01:29:59;;;;;;;;;;;22.40;99.90;;;21.29;92.75;95769.88;10466761;28;2306;-78
2021/08/15 01:35:01;;;;;;;;;;;22.30;99.90;;;21.29;91.96;95758.94;10488542;28;2407;-78
2021/08/15 01:40:05;;;;;;;;;;;22.20;99.90;;;21.38;92.40;95770.56;10495429;28;2794;-80
2021/08/15 01:45:08;;;;;;;;;;;22.20;99.90;;;21.57;91.52;95770.78;10491275;28;2528;-79
2021/08/15 01:50:11;;;;;;;;;;;22.30;99.90;;;21.55;91.43;95764.03;10497314;28;2601;-78
2021/08/15 01:55:13;;;;;;;;;;;22.40;99.90;;;21.63;91.55;95760.41;10502050;28;2494;-79
2021/08/15 02:00:16;;;;;;;;;;;22.40;99.90;;;21.68;91.28;95762.09;10490016;28;2742;-79
2021/08/15 02:05:19;;;;;;;;;;;22.40;99.90;;;21.63;91.59;95756.84;10493037;28;2824;-78
2021/08/15 02:10:22;;;;;;;;;;;22.50;99.90;;;21.47;92.95;95760.28;10467578;28;2376;-79
2021/08/15 02:15:25;;;;;;;;;;;22.40;99.90;;;21.17;95.17;95764.38;10498135;28;2394;-77
2021/08/15 02:20:27;;;;;;;;;;;22.30;99.90;;;21.02;95.83;95774.84;10494987;28;2209;-78
2021/08/15 02:25:30;;;;;;;;;;;22.10;99.90;;;20.96;96.03;95772.69;10500528;28;2210;-78
2021/08/15 02:30:33;;;;;;;;;;;22.00;99.90;;;21.01;95.40;95769.72;10498898;28;2231;-77
2021/08/15 02:35:35;;;;;;;;;;;21.90;99.90;;;20.94;96.17;95774.97;10521486;28;2427;-79
2021/08/15 02:40:38;;;;;;;;;;;21.90;99.90;;;20.87;96.62;95769.25;10492231;28;2285;-78
2021/08/15 02:45:41;;;;;;;;;;;21.80;99.90;;;20.71;97.57;95774.56;10494207;28;2266;-78
2021/08/15 02:50:43;;;;;;;;;;;21.70;99.90;;;20.76;97.14;95768.91;10497775;28;2375;-78
2021/08/15 02:55:46;;;;;;;;;;;21.70;99.90;;;20.87;96.96;95761.88;10494013;28;2795;-77
2021/08/15 03:00:49;;;;;;;;;;;21.70;99.90;;;20.76;97.05;95757.97;10491981;28;2356;-78
2021/08/15 03:05:52;;;;;;;;;;;21.70;99.90;;;20.73;97.56;95764.09;10495293;28;2459;-79
2021/08/15 03:10:54;;;;;;;;;;;21.60;99.90;;;20.62;98.12;95754.75;10502127;28;2896;-79
2021/08/15 03:15:57;;;;;;;;;;;21.60;99.90;;;20.60;98.99;95749.63;10477108;28;2397;-79
2021/08/15 03:21:00;;;;;;;;;;;21.50;99.90;;;20.34;100.00;95746.34;10485410;28;2637;-78
2021/08/15 03:26:02;;;;;;;;;;;21.40;99.90;;;20.18;100.00;95744.25;10483075;28;2444;-78
2021/08/15 03:31:05;;;;;;;;;;;21.30;99.90;;;20.01;100.00;95738.94;10498094;28;2498;-78
2021/08/15 03:36:08;;;;;;;;;;;21.10;99.90;;;20.02;100.00;95745.97;10502808;28;2523;-77
2021/08/15 03:41:10;;;;;;;;;;;21.00;99.90;;;19.95;100.00;95737.53;10496641;28;2028;-78
2021/08/15 03:46:13;;;;;;;;;;;21.00;99.90;;;19.93;100.00;95737.88;10482032;28;2518;-79
2021/08/15 03:51:16;;;;;;;;;;;20.90;99.90;;;19.93;100.00;95742.53;10499955;28;2585;-78
2021/08/15 03:56:18;;;;;;;;;;;20.90;99.90;;;19.97;100.00;95744.25;10495164;28;2471;-78
2021/08/15 04:01:21;;;;;;;;;;;20.90;99.90;;;20.54;99.62;95739.25;10478848;28;2468;-78
2021/08/15 04:06:24;;;;;;;;;;;21.10;99.90;;;20.61;99.05;95751.19;10495448;28;2494;-79
2021/08/15 04:11:27;;;;;;;;;;;21.40;99.90;;;20.68;98.68;95745.22;10475161;28;2535;-79
2021/08/15 04:16:30;;;;;;;;;;;21.50;99.90;;;20.55;99.51;95749.03;10499036;28;2480;-79
2021/08/15 04:21:33;;;;;;;;;;;21.50;99.90;;;20.89;97.17;95748.66;10496869;28;2412;-78
2021/08/15 04:26:35;;;;;;;;;;;21.60;99.90;;;21.11;95.98;95749.34;10473026;28;2566;-78
2021/08/15 04:31:38;;;;;;;;;;;21.70;99.90;;;21.10;95.40;95742.28;10487624;28;2510;-78
2021/08/15 04:36:41;;;;;;;;;;;21.80;99.90;;;21.18;94.17;95744.88;10495344;28;2495;-78
2021/08/15 04:41:44;;;;;;;;;;;22.00;99.90;;;21.36;92.70;95745.47;10497834;28;2585;-79
2021/08/15 04:46:46;;;;;;;;;;;22.10;99.90;;;21.41;92.35;95737.06;10486898;28;2503;-79
2021/08/15 04:51:49;;;;;;;;;;;22.20;99.90;;;21.58;90.79;95738.75;10491670;28;2645;-78
2021/08/15 04:56:52;;;;;;;;;;;22.30;99.90;;;21.69;89.87;95747.25;10487695;28;2939;-77
2021/08/15 05:01:55;;;;;;;;;;;22.40;99.90;;;21.93;88.16;95739.00;10495267;28;2357;-79
2021/08/15 05:06:58;;;;;;;;;;;22.60;99.90;;;22.14;86.57;95749.81;10492103;28;2558;-78
2021/08/15 05:12:02;;;;;;;;;;;22.70;99.90;;;22.32;85.35;95745.59;10473429;28;2508;-77
2021/08/15 05:17:06;;;;;;;;;;;22.90;99.90;;;22.62;83.50;95746.00;10499822;28;2472;-78
2021/08/15 05:22:08;;;;;;;;;;;23.10;99.90;;;23.00;81.80;95755.63;10496744;28;2540;-79
2021/08/15 05:27:11;;;;;;;;;;;23.40;99.90;;;23.29;80.44;95748.09;10497637;28;2519;-77
2021/08/15 05:32:14;;;;;;;;;;;23.60;99.90;;;23.45;78.92;95752.41;10490649;28;2490;-78
2021/08/15 05:37:16;;;;;;;;;;;23.80;99.90;;;23.31;79.92;95751.28;10493694;28;2569;-79
2021/08/15 05:42:19;;;;;;;;;;;23.90;99.90;;;23.45;78.68;95744.16;10499542;28;2573;-80
2021/08/15 05:47:22;;;;;;;;;;;23.90;99.90;;;23.53;78.47;95750.59;10524837;28;2582;-75
2021/08/15 05:52:26;;;;;;;;;;;23.90;99.90;;;23.12;80.13;95752.78;10527667;28;1913;-77
2021/08/15 05:57:28;;;;;;;;;;;23.90;99.90;;;22.33;85.11;95754.59;10499737;28;2393;-79
2021/08/15 06:02:31;;;;;;;;;;;23.50;99.90;;;22.55;83.85;95748.56;10501429;28;2531;-78
2021/08/15 06:07:34;;;;;;;;;;;23.40;99.90;;;22.60;83.40;95759.28;10489268;28;2511;-78
2021/08/15 06:12:37;;;;;;;;;;;23.50;99.90;;;22.87;82.23;95757.66;10489963;28;2558;-77
2021/08/15 06:17:39;;;;;;;;;;;23.40;99.90;;;23.15;80.82;95763.03;10507545;28;2396;-79
2021/08/15 06:22:42;;;;;;;;;;;23.60;99.90;;;22.82;82.15;95768.84;10501424;28;2115;-79
2021/08/15 06:27:45;;;;;;;;;;;23.70;99.90;;;23.87;75.94;95759.25;10501982;28;2511;-79
2021/08/15 06:32:47;;;;;;;;;;;24.00;99.90;;;24.30;74.10;95762.84;10497408;28;2456;-79
2021/08/15 06:37:52;;;;;;;;;;;24.50;99.90;;;24.60;71.47;95763.88;10500451;28;2594;-80
2021/08/15 06:42:55;;;;;;;;;;;24.80;99.90;;;24.53;73.37;95764.53;10498174;28;2570;-79
2021/08/15 06:47:58;;;;;;;;;;;24.90;99.90;;;24.40;72.40;95752.13;10500443;28;2555;-79
2021/08/15 06:53:01;;;;;;;;;;;25.10;99.90;;;24.13;74.65;95756.66;10486165;28;2545;-78
2021/08/15 06:58:03;;;;;;;;;;;25.00;99.90;;;24.05;74.58;95751.34;10493365;28;2565;-79
2021/08/15 07:03:06;;;;;;;;;;;25.00;99.90;;;24.43;71.70;95745.09;10494274;28;2525;-78
2021/08/15 07:08:13;;;;;;;;;;;25.20;99.90;;;24.70;71.27;95755.03;10474406;28;2870;-78
2021/08/15 07:13:19;;;;;;;;;;;25.20;99.90;;;25.17;68.88;95748.41;10500477;28;2423;-78
2021/08/15 07:18:22;;;;;;;;;;;25.40;99.90;;;25.67;65.55;95751.94;10493863;28;2566;-78
2021/08/15 07:23:25;;;;;;;;;;;25.80;99.90;;;26.44;62.17;95747.88;10498175;28;2098;-78
2021/08/15 07:28:28;;;;;;;;;;;26.30;99.90;;;26.67;59.85;95750.50;10493339;28;2428;-78
2021/08/15 07:33:30;;;;;;;;;;;26.60;99.90;;;26.37;60.66;95745.78;10496658;28;2562;-77
2021/08/15 07:38:34;;;;;;;;;;;26.70;99.90;;;26.09;61.67;95751.75;10495712;28;2704;-80
2021/08/15 07:43:37;;;;;;;;;;;26.60;99.90;;;25.68;63.08;95745.25;10497796;28;2344;-80
2021/08/15 07:48:39;;;;;;;;;;;26.60;99.90;;;26.28;59.87;95742.56;10499183;28;2312;-80
2021/08/15 07:53:42;;;;;;;;;;;26.90;99.90;;;26.23;59.45;95742.88;10504232;28;2387;-78
2021/08/15 07:58:45;;;;;;;;;;;27.20;99.90;;;25.87;62.42;95738.88;10506141;28;2363;-78
2021/08/15 08:03:47;;;;;;;;;;;26.90;99.90;;;26.31;59.47;95736.28;10504900;28;2385;-78
2021/08/15 08:08:50;;;;;;;;;;;26.90;99.90;;;26.72;57.33;95738.31;10513071;28;2351;-78
2021/08/15 08:13:54;;;;;;;;;;;27.10;99.90;;;26.59;57.98;95730.34;10492406;28;2359;-79
2021/08/15 08:18:56;;;;;;;;;;;27.30;99.90;;;26.70;58.29;95721.34;10497834;28;2408;-79
2021/08/15 08:24:02;;;;;;;;;;;27.50;99.90;;;26.89;59.12;95723.91;10475615;28;2306;-77
2021/08/15 08:29:04;;;;;;;;;;;27.50;99.90;;;26.97;56.64;95722.00;10491470;28;2398;-78
2021/08/15 08:34:07;;;;;;;;;;;27.60;99.90;;;27.18;54.00;95716.72;10501958;28;2316;-79
2021/08/15 08:39:10;;;;;;;;;;;27.70;99.90;;;27.56;52.06;95700.81;10500799;28;2325;-78
2021/08/15 08:44:12;;;;;;;;;;;28.00;99.90;;;27.70;51.17;95707.22;10496788;28;2672;-79
2021/08/15 08:49:16;;;;;;;;;;;28.30;99.90;;;28.04;51.72;95695.16;10509072;28;2290;-79
2021/08/15 08:54:19;;;;;;;;;;;28.60;99.90;;;28.30;51.95;95692.09;10509585;28;2403;-78
2021/08/15 08:59:22;;;;;;;;;;;28.70;99.90;;;28.46;51.31;95692.56;10506355;28;2391;-78
2021/08/15 09:04:25;;;;;;;;;;;29.00;99.90;;;28.63;52.39;95685.50;10499282;28;2351;-78
2021/08/15 09:09:27;;;;;;;;;;;29.20;99.90;;;28.07;53.01;95686.09;10514160;28;2303;-78
2021/08/15 09:14:31;;;;;;;;;;;28.90;99.90;;;28.34;52.65;95670.81;10502890;28;2752;-79
2021/08/15 09:19:34;;;;;;;;;;;29.00;99.90;;;28.48;51.37;95668.09;10506740;28;2438;-78
2021/08/15 09:24:36;;;;;;;;;;;29.30;99.90;;;28.61;51.28;95662.97;10507099;28;2305;-77
2021/08/15 09:29:44;;;;;;;;;;;29.30;99.90;;;28.87;52.20;95656.28;10505231;28;2311;-78
2021/08/15 09:34:47;;;;;;;;;;;29.50;99.90;;;29.50;50.35;95651.88;10490797;28;2312;-78
2021/08/15 09:39:50;;;;;;;;;;;29.80;99.90;;;29.93;48.05;95648.22;10510050;28;2335;-78
2021/08/15 09:44:53;;;;;;;;;;;30.00;99.90;;;30.00;49.12;95646.22;10506146;28;2331;-78
2021/08/15 09:49:56;;;;;;;;;;;30.40;99.90;;;29.43;48.99;95645.59;10515261;28;2320;-79
2021/08/15 09:54:59;;;;;;;;;;;30.30;99.90;;;29.01;50.72;95644.44;10504307;28;2676;-78
2021/08/15 10:00:02;;;;;;;;;;;30.00;99.90;;;29.16;49.63;95643.25;10489301;28;2320;-80
2021/08/15 10:05:05;;;;;;;;;;;29.90;99.90;;;29.45;49.12;95643.19;10493361;28;2347;-78
2021/08/15 10:10:08;;;;;;;;;;;30.00;99.90;;;29.39;49.57;95631.72;10498576;28;2293;-79
2021/08/15 10:15:10;;;;;;;;;;;30.10;99.90;;;29.74;48.05;95627.31;10505589;28;2289;-79
2021/08/15 10:20:14;;;;;;;;;;;30.40;99.90;;;29.69;48.38;95616.66;10491275;28;2290;-80
2021/08/15 10:25:16;;;;;;;;;;;30.30;99.90;;;29.83;47.21;95613.81;10523932;28;2612;-79
2021/08/15 10:30:19;;;;;;;;;;;30.40;99.90;;;30.18;45.87;95617.66;10518099;28;2213;-80
2021/08/15 10:35:22;;;;;;;;;;;30.60;99.90;;;30.13;46.08;95610.56;10503383;28;2446;-79
2021/08/15 10:40:25;;;;;;;;;;;30.70;99.90;;;29.68;48.09;95599.25;10512529;28;2677;-78
2021/08/15 10:45:28;;;;;;;;;;;30.50;99.90;;;29.08;47.94;95589.91;10499818;28;2312;-79
2021/08/15 10:50:30;;;;;;;;;;;30.20;99.90;;;29.39;47.02;95584.66;10506623;28;2742;-78
2021/08/15 10:55:33;;;;;;;;;;;29.90;99.90;;;29.77;45.53;95582.19;10502250;28;2380;-80
2021/08/15 11:00:36;;;;;;;;;;;30.20;99.90;;;30.12;45.93;95582.03;10518654;28;2432;-78
2021/08/15 11:05:39;;;;;;;;;;;30.60;99.90;;;31.00;43.70;95556.84;10503962;28;2158;-78
2021/08/15 11:10:42;;;;;;;;;;;31.10;99.90;;;31.46;42.78;95544.47;10480917;28;2476;-78
2021/08/15 11:15:44;;;;;;;;;;;31.70;99.90;;;30.71;44.11;95549.97;10482144;28;2429;-78
2021/08/15 11:20:48;;;;;;;;;;;31.80;99.90;;;30.88;43.25;95543.47;10487451;28;2332;-82
2021/08/15 11:25:50;;;;;;;;;;;31.70;99.90;;;31.20;42.84;95537.59;10511375;28;2353;-79
2021/08/15 11:30:53;;;;;;;;;;;31.80;99.90;;;31.54;42.72;95531.28;10480384;28;2293;-78
2021/08/15 11:35:56;;;;;;;;;;;32.00;99.90;;;31.82;43.18;95524.59;10499289;28;2415;-78
2021/08/15 11:41:00;;;;;;;;;;;32.10;99.90;;;32.16;41.26;95519.72;10519088;28;2284;-78
2021/08/15 11:46:02;;;;;;;;;;;32.40;99.90;;;31.36;43.46;95521.16;10504434;28;2693;-77
2021/08/15 11:51:05;;;;;;;;;;;32.30;99.90;;;31.40;42.68;95518.34;10507443;28;2284;-79
2021/08/15 11:56:08;;;;;;;;;;;32.20;99.90;;;31.14;43.67;95503.94;10498689;28;2346;-78
2021/08/15 12:01:10;;;;;;;;;;;32.00;99.90;;;30.28;45.63;95494.81;10498880;28;2418;-78
2021/08/15 12:06:14;;;;;;;;;;;31.60;99.90;;;30.27;46.56;95498.78;10500601;28;2387;-79
2021/08/15 12:11:16;;;;;;;;;;;31.20;99.90;;;30.72;44.72;95496.03;10480534;28;2320;-79
2021/08/15 12:16:19;;;;;;;;;;;31.30;99.90;;;30.93;44.29;95487.53;10504330;28;2331;-79
2021/08/15 12:21:22;;;;;;;;;;;31.50;99.90;;;30.64;44.24;95484.19;10492023;28;2272;-77
2021/08/15 12:26:40;;;;;;;;;;;31.60;99.90;;;30.54;45.10;95480.34;10493496;28;2320;-77
2021/08/15 12:31:42;;;;;;;;;;;31.40;99.90;;;30.62;44.77;95467.19;10495521;28;2335;-78
2021/08/15 12:36:45;;;;;;;;;;;31.40;99.90;;;31.10;43.13;95455.19;10476130;28;2280;-78
2021/08/15 12:41:48;;;;;;;;;;;31.70;99.90;;;31.30;41.49;95449.81;10502720;28;2538;-79
2021/08/15 12:46:50;;;;;;;;;;;31.90;99.30;;;30.99;42.94;95447.00;10501830;28;2221;-80
2021/08/15 12:51:56;;;;;;;;;;;31.80;99.70;;;31.54;41.08;95453.50;10503148;28;2379;-79
2021/08/15 12:56:59;;;;;;;;;;;32.00;99.30;;;31.59;40.75;95450.25;10493506;28;2701;-78
2021/08/15 13:02:01;;;;;;;;;;;32.10;98.00;;;32.15;39.10;95440.31;10477502;28;2272;-79
2021/08/15 13:07:05;;;;;;;;;;;32.50;96.50;;;31.78;40.95;95432.91;10504770;28;2494;-79
2021/08/15 13:12:07;;;;;;;;;;;32.60;96.60;;;31.33;42.54;95429.56;10494767;28;2448;-79
2021/08/15 13:17:10;;;;;;;;;;;32.40;97.60;;;31.86;40.82;95405.81;10505062;28;2758;-79
2021/08/15 13:22:13;;;;;;;;;;;32.50;97.00;;;31.22;41.37;95411.00;10499132;28;2288;-78
2021/08/15 13:27:16;;;;;;;;;;;32.40;95.40;;;31.25;41.14;95397.56;10499885;28;2458;-78
2021/08/15 13:32:22;;;;;;;;;;;32.00;96.20;;;31.67;40.12;95385.81;10496737;28;2395;-78
2021/08/15 13:37:24;;;;;;;;;;;32.10;95.90;;;31.34;40.44;95378.38;10482988;28;2277;-78
2021/08/15 13:42:27;;;;;;;;;;;32.00;95.00;;;31.34;40.28;95373.59;10498181;28;2376;-79
2021/08/15 13:47:31;;;;;;;;;;;32.00;94.50;;;31.09;40.67;95365.59;10504458;28;2253;-79
2021/08/15 13:52:34;;;;;;;;;;;32.00;93.70;;;31.35;40.46;95349.41;10488752;28;2331;-79
2021/08/15 13:57:36;;;;;;;;;;;32.00;94.40;;;31.01;41.66;95355.00;10504677;28;2341;-80
2021/08/15 14:02:39;;;;;;;;;;;31.90;94.50;;;30.67;42.57;95337.19;10499017;28;2340;-77
2021/08/15 14:07:47;;;;;;;;;;;31.70;95.00;;;30.68;41.63;95335.97;10501619;28;2364;-78
2021/08/15 14:12:50;;;;;;;;;;;31.60;94.50;;;30.59;42.21;95343.97;10506254;28;2423;-78
2021/08/15 14:17:54;;;;;;;;;;;31.30;94.70;;;30.88;41.09;95333.34;10500890;28;2332;-79
2021/08/15 14:22:58;;;;;;;;;;;31.40;94.40;;;30.72;40.59;95330.38;10497357;28;2381;-79
2021/08/15 14:28:00;;;;;;;;;;;31.40;92.90;;;30.69;41.20;95342.31;10511210;28;2312;-79
2021/08/15 14:33:03;;;;;;;;;;;31.30;93.60;;;30.32;43.28;95343.88;10510715;28;2303;-80
2021/08/15 14:38:06;;;;;;;;;;;31.30;95.40;;;30.06;44.78;95367.44;10509503;28;2367;-79
2021/08/15 14:43:09;;;;;;;;;;;31.00;96.90;;;29.30;46.26;95360.09;10516578;28;2204;-80
2021/08/15 14:48:13;;;;;;;;;;;30.40;97.80;;;29.11;46.86;95380.75;10518068;28;2467;-81
2021/08/15 14:53:16;;;;;;;;;;;30.00;99.00;;;28.85;48.02;95384.78;10532728;28;2567;-79
2021/08/15 14:58:18;;;;;;;;;;;29.80;99.40;;;28.66;48.01;95399.06;10518725;28;2292;-78
2021/08/15 15:03:21;;;;;;;;;;;29.60;99.90;;;28.34;49.64;95408.22;10507003;28;2233;-79
2021/08/15 15:08:24;;;;;;;;;;;29.40;99.90;;;28.32;50.22;95463.13;10515581;28;2351;-80
2021/08/15 15:13:30;;;;;;;;;;;28.70;95.70;;;26.89;45.38;95503.28;10511270;28;2302;-81
2021/08/15 15:18:33;;;;;;;;;;;28.40;94.40;;;25.51;49.36;95501.69;10504712;28;2468;-81
2021/08/15 15:23:36;;;;;;;;;;;27.10;96.70;;;21.74;79.39;95561.00;10499677;28;2412;-78
2021/08/15 15:28:38;;;;;;;;;;;24.50;99.90;;;19.20;93.53;95497.63;10490464;28;1692;-80
2021/08/15 15:33:41;;;;;;;;;;;21.40;99.90;;;19.09;100.00;95508.16;10488338;28;1581;-80
2021/08/15 15:38:44;;;;;;;;;;;20.10;99.90;;;18.83;100.00;95439.47;10502947;28;2608;-80
2021/08/15 15:43:47;;;;;;;;;;;19.70;99.90;;;20.12;100.00;95461.78;10506622;28;2726;-78
2021/08/15 15:48:49;;;;;;;;;;;20.20;99.90;;;19.76;100.00;95435.28;10492655;28;1707;-79
2021/08/15 15:53:52;;;;;;;;;;;20.60;99.90;;;20.33;98.87;95415.25;10485756;28;1532;-79
2021/08/15 15:58:55;;;;;;;;;;;20.60;99.90;;;20.95;96.85;95394.03;10508432;28;1883;-79
2021/08/15 16:03:58;;;;;;;;;;;21.40;99.90;;;21.56;95.35;95396.41;10506632;28;2319;-80
2021/08/15 16:09:06;;;;;;;;;;;21.90;99.90;;;22.45;90.71;95394.97;10504594;28;2508;-81
2021/08/15 16:14:08;;;;;;;;;;;22.50;99.90;;;23.27;84.47;95415.81;10494770;28;2359;-80
2021/08/15 16:19:12;;;;;;;;;;;23.20;99.90;;;23.24;80.97;95387.19;10498434;28;2363;-81
2021/08/15 16:24:15;;;;;;;;;;;23.70;99.90;;;23.13;81.96;95356.84;10505612;28;2269;-80
2021/08/15 16:29:18;;;;;;;;;;;23.70;99.90;;;22.91;83.77;95355.66;10500798;28;2264;-79
2021/08/15 16:34:21;;;;;;;;;;;23.60;99.90;;;22.95;79.62;95344.75;10511300;28;2457;-79
2021/08/15 16:39:24;;;;;;;;;;;23.60;99.90;;;22.95;81.01;95377.63;10506016;28;2247;-79
2021/08/15 16:44:26;;;;;;;;;;;23.60;99.90;;;22.97;80.02;95430.16;10501423;28;2375;-81
2021/08/15 16:49:29;;;;;;;;;;;23.60;99.90;;;22.82;82.46;95440.00;10496591;28;2307;-79
2021/08/15 16:54:32;;;;;;;;;;;23.60;99.90;;;22.76;82.67;95438.69;10491748;28;2402;-79
2021/08/15 16:59:34;;;;;;;;;;;23.60;99.90;;;22.74;82.92;95416.34;10498956;28;2337;-78
2021/08/15 17:04:37;;;;;;;;;;;23.60;99.90;;;22.73;84.11;95424.94;10496075;28;2291;-79
2021/08/15 17:09:41;;;;;;;;;;;23.60;99.90;;;22.63;83.98;95415.31;10501979;28;2253;-79
2021/08/15 17:14:43;;;;;;;;;;;23.50;99.90;;;22.46;86.88;95418.47;10490555;28;2372;-78
2021/08/15 17:19:46;;;;;;;;;;;23.50;99.90;;;22.58;84.78;95419.13;10502601;28;2360;-78
2021/08/15 17:24:49;;;;;;;;;;;23.40;99.90;;;22.57;82.95;95406.59;10496262;28;2289;-78
2021/08/15 17:29:51;;;;;;;;;;;23.40;99.90;;;22.51;82.48;95390.78;10476752;28;2301;-78
2021/08/15 17:34:54;;;;;;;;;;;23.40;99.90;;;22.47;83.72;95381.72;10505336;28;2422;-77
2021/08/15 17:39:57;;;;;;;;;;;23.30;99.90;;;22.35;85.05;95377.19;10488456;28;2297;-80
2021/08/15 17:44:59;;;;;;;;;;;23.20;99.90;;;22.30;83.49;95366.50;10502638;28;2322;-78
2021/08/15 17:50:02;;;;;;;;;;;23.20;99.90;;;22.12;85.75;95368.84;10503574;28;2707;-78
2021/08/15 17:55:05;;;;;;;;;;;23.10;99.90;;;22.09;85.59;95370.34;10484744;28;2273;-77
2021/08/15 18:00:07;;;;;;;;;;;23.00;99.90;;;21.98;84.70;95384.91;10505146;28;2374;-81
2021/08/15 18:05:10;;;;;;;;;;;22.90;99.90;;;22.11;83.32;95394.63;10502620;28;2351;-79
2021/08/15 18:10:14;;;;;;;;;;;23.00;99.90;;;22.16;82.36;95402.56;10509600;28;2309;-79
2021/08/15 18:15:17;;;;;;;;;;;23.00;99.90;;;22.01;83.25;95406.91;10505280;28;2324;-80
2021/08/15 18:20:20;;;;;;;;;;;22.90;99.90;;;21.75;86.21;95398.44;10503725;28;2270;-79
2021/08/15 18:25:23;;;;;;;;;;;22.80;99.90;;;21.45;87.55;95404.38;10503266;28;2247;-79
2021/08/15 18:30:27;;;;;;;;;;;22.60;99.90;;;21.35;88.05;95402.13;10482501;28;2267;-80
2021/08/15 18:35:30;;;;;;;;;;;22.40;99.90;;;21.38;88.05;95406.91;10497525;28;2258;-80
2021/08/15 18:40:33;;;;;;;;;;;22.40;99.90;;;21.35;90.50;95421.28;10506151;28;2422;-80
2021/08/15 18:45:35;;;;;;;;;;;22.30;99.90;;;21.57;88.51;95428.09;10504627;28;2286;-80
2021/08/15 18:50:43;;;;;;;;;;;22.40;99.90;;;21.62;88.56;95432.50;10484651;28;2274;-80
2021/08/15 18:55:45;;;;;;;;;;;22.40;99.90;;;21.57;88.20;95434.38;10507360;28;2406;-79
2021/08/15 19:00:48;;;;;;;;;;;22.50;99.90;;;21.49;88.12;95443.50;10497701;28;2377;-80
2021/08/15 19:05:56;;;;;;;;;;;22.40;99.90;;;21.41;89.44;95443.69;10496259;28;2363;-79
2021/08/15 19:11:00;;;;;;;;;;;22.40;99.90;;;21.25;91.66;95440.91;10498669;28;2295;-79
2021/08/15 19:16:03;;;;;;;;;;;22.20;99.90;;;21.24;90.86;95450.22;10500443;28;2353;-80
2021/08/15 19:21:06;;;;;;;;;;;22.10;99.90;;;21.50;88.87;95445.13;10480240;28;2319;-79
2021/08/15 19:26:22;;;;;;;;;;;22.20;99.90;;;21.35;89.22;95454.09;10497729;28;2260;-78
2021/08/15 19:31:25;;;;;;;;;;;22.30;99.90;;;21.41;86.57;95444.47;10495847;28;2307;-78
2021/08/15 19:36:28;;;;;;;;;;;22.30;99.90;;;21.28;86.44;95446.50;10495200;28;2090;-79
2021/08/15 19:41:31;;;;;;;;;;;22.20;99.90;;;21.55;86.80;95433.91;10476934;28;2438;-79
2021/08/15 19:46:34;;;;;;;;;;;22.30;99.90;;;21.69;86.32;95440.88;10479017;28;2325;-79
2021/08/15 19:51:37;;;;;;;;;;;22.40;99.90;;;21.38;87.47;95434.25;10502257;28;2223;-78
2021/08/15 19:56:40;;;;;;;;;;;22.40;99.90;;;21.34;88.24;95427.91;10498926;28;2004;-78
2021/08/15 20:01:51;;;;;;;;;;;22.30;99.90;;;21.09;88.71;95431.88;10495088;28;2419;-79
2021/08/15 20:06:54;;;;;;;;;;;22.10;99.90;;;20.93;89.27;95435.38;10490551;28;2318;-79
2021/08/15 20:11:58;;;;;;;;;;;22.00;99.90;;;20.61;90.68;95433.63;10490466;28;2374;-78
2021/08/15 20:17:01;;;;;;;;;;;21.80;99.90;;;20.39;93.27;95432.97;10493588;28;2363;-78
2021/08/15 20:22:05;;;;;;;;;;;21.60;99.90;;;20.39;94.27;95426.72;10495248;28;2332;-79
2021/08/15 20:27:08;;;;;;;;;;;21.40;99.90;;;20.19;94.72;95410.16;10491016;28;2320;-77
2021/08/15 20:32:10;;;;;;;;;;;21.30;99.90;;;20.07;96.27;95406.66;10490203;28;2332;-77
2021/08/15 20:37:13;;;;;;;;;;;21.10;99.90;;;19.96;97.18;95409.84;10491721;28;2259;-78
2021/08/15 20:42:16;;;;;;;;;;;21.10;99.90;;;19.97;97.13;95405.97;10491174;28;2191;-78
2021/08/15 20:47:19;;;;;;;;;;;20.90;99.90;;;19.98;96.45;95395.88;10494974;28;2472;-78
2021/08/15 20:52:22;;;;;;;;;;;21.00;99.90;;;20.02;95.96;95398.69;10493100;28;2340;-77
2021/08/15 20:57:24;;;;;;;;;;;21.00;99.90;;;20.10;97.16;95408.69;10490967;28;2646;-78
2021/08/15 21:02:27;;;;;;;;;;;21.00;99.90;;;20.10;94.99;95416.88;10491713;28;2313;-78
2021/08/15 21:07:30;;;;;;;;;;;21.00;99.90;;;20.07;96.09;95418.34;10493439;28;2245;-78
2021/08/15 21:12:33;;;;;;;;;;;21.00;99.90;;;20.05;96.62;95403.47;10490065;28;2308;-76
2021/08/15 21:17:35;;;;;;;;;;;21.00;99.90;;;20.16;95.96;95401.84;10482604;28;2637;-77
2021/08/15 21:22:38;;;;;;;;;;;21.00;99.90;;;20.10;95.18;95416.88;10500837;28;2332;-77
2021/08/15 21:27:40;;;;;;;;;;;21.00;99.90;;;20.13;94.58;95399.81;10500928;28;2319;-77
2021/08/15 21:32:43;;;;;;;;;;;21.00;99.90;;;20.13;94.06;95386.19;10505269;28;2398;-79
2021/08/15 21:37:46;;;;;;;;;;;21.00;99.90;;;20.29;94.06;95395.22;10499578;28;2301;-79
2021/08/15 21:42:49;;;;;;;;;;;21.10;99.90;;;20.36;94.18;95392.75;10498840;28;2257;-78
2021/08/15 21:47:52;;;;;;;;;;;21.20;99.90;;;20.26;94.55;95395.94;10486631;28;2333;-78
2021/08/15 21:52:55;;;;;;;;;;;21.10;99.90;;;20.38;94.20;95404.09;10488375;28;2685;-78
2021/08/15 21:57:58;;;;;;;;;;;21.10;99.90;;;20.54;93.92;95411.59;10491948;28;2369;-78
2021/08/15 22:03:00;;;;;;;;;;;21.20;99.90;;;20.45;93.70;95406.28;10502944;28;2338;-78
2021/08/15 22:08:04;;;;;;;;;;;21.30;99.90;;;20.41;94.63;95406.13;10503326;28;2340;-79
2021/08/15 22:13:07;;;;;;;;;;;21.30;99.90;;;20.42;93.82;95405.00;10501110;28;2347;-78
2021/08/15 22:18:11;;;;;;;;;;;21.30;99.90;;;20.37;94.62;95407.97;10500408;28;2375;-78
2021/08/15 22:23:13;;;;;;;;;;;21.30;99.90;;;20.43;95.22;95390.22;10500592;28;2261;-78
2021/08/15 22:28:16;;;;;;;;;;;21.20;99.90;;;20.32;95.85;95388.31;10499386;28;2243;-78
2021/08/15 22:33:19;;;;;;;;;;;21.20;99.90;;;20.51;95.19;95400.22;10483388;28;2320;-78
2021/08/15 22:38:21;;;;;;;;;;;21.20;99.90;;;20.40;94.68;95388.16;10479508;28;2246;-78
2021/08/15 22:43:24;;;;;;;;;;;21.30;99.90;;;20.46;94.67;95381.34;10493232;28;2013;-77
2021/08/15 22:48:27;;;;;;;;;;;21.30;99.90;;;20.66;94.09;95370.59;10499509;28;2376;-78
2021/08/15 22:53:29;;;;;;;;;;;21.40;99.90;;;20.63;94.51;95361.16;10498277;28;2344;-78
2021/08/15 22:58:32;;;;;;;;;;;21.40;99.90;;;20.61;94.48;95368.09;10489828;28;2354;-78
2021/08/15 23:03:35;;;;;;;;;;;21.50;99.90;;;20.61;94.72;95357.16;10497584;28;2202;-77
2021/08/15 23:08:37;;;;;;;;;;;21.40;99.90;;;20.72;93.73;95361.00;10526841;28;1938;-76
2021/08/15 23:13:40;;;;;;;;;;;21.50;99.90;;;20.69;94.52;95356.25;10506965;28;2637;-77